createdAt,value
2022-08-11T00:04:14.914Z,94.50
2022-08-11T00:07:38.222Z,94.00
2022-08-11T00:11:08.637Z,94.00
2022-08-11T00:39:53.342Z,94.90
2022-08-11T00:44:24.095Z,94.60
2022-08-11T00:46:49.858Z,94.40
2022-08-11T00:52:56.662Z,94.40
2022-08-11T00:55:47.208Z,94.60
2022-08-11T00:58:53.905Z,94.70
2022-08-11T01:05:34.275Z,94.80
2022-08-11T01:18:00.888Z,94.90
2022-08-11T01:21:08.731Z,95.20
2022-08-11T01:23:40.970Z,94.50
2022-08-11T01:26:32.709Z,94.90
2022-08-11T01:29:42.235Z,94.90
2022-08-11T01:45:25.334Z,95.40
2022-08-11T01:50:06.573Z,95.10
2022-08-11T01:53:09.623Z,95.50
2022-08-11T01:56:12.303Z,95.40
2022-08-11T02:00:01.125Z,95.20
2022-08-11T02:03:28.712Z,95.70
2022-08-11T02:10:54.008Z,96.60
2022-08-11T02:14:00.935Z,95.80
2022-08-11T02:17:13.343Z,96.20
2022-08-11T02:27:59.437Z,96.20
2022-08-11T02:47:17.043Z,97.20
2022-08-11T03:06:26.238Z,98.20
2022-08-11T03:22:34.899Z,97.90
2022-08-11T03:29:51.581Z,98.10
2022-08-11T03:38:09.975Z,98.30
2022-08-11T03:42:14.874Z,98.20
2022-08-11T03:53:44.254Z,98.10
2022-08-11T04:01:29.861Z,98.80
2022-08-11T04:04:22.518Z,98.70
2022-08-11T04:11:39.373Z,98.80
2022-08-11T04:15:27.700Z,98.70
2022-08-11T04:26:34.261Z,99.30
2022-08-11T04:30:12.601Z,99.00
2022-08-11T04:33:49.796Z,99.20
2022-08-11T04:41:37.264Z,99.90
2022-08-11T04:57:05.667Z,99.90
2022-08-11T05:00:58.414Z,99.50
2022-08-11T05:21:04.414Z,99.90
2022-08-11T05:47:08.410Z,99.90
2022-08-11T05:50:15.630Z,99.90
2022-08-11T05:53:16.107Z,99.90
2022-08-11T05:56:23.974Z,99.90
2022-08-11T05:59:11.033Z,99.90
2022-08-11T06:01:43.667Z,99.90
2022-08-11T06:04:41.153Z,99.90
2022-08-11T06:14:22.918Z,99.70
2022-08-11T06:17:38.519Z,99.60
2022-08-11T06:20:35.006Z,99.80
2022-08-11T06:23:18.431Z,99.90
2022-08-11T06:26:20.791Z,99.70
2022-08-11T06:28:58.727Z,98.80
2022-08-11T06:32:04.444Z,99.80
2022-08-11T06:34:58.262Z,99.90
2022-08-11T06:38:12.363Z,99.10
2022-08-11T06:41:28.288Z,99.80
2022-08-11T06:44:33.835Z,99.40
2022-08-11T06:48:14.142Z,99.90
2022-08-11T06:51:42.979Z,99.90
2022-08-11T06:54:29.787Z,99.90
2022-08-11T07:00:42.403Z,99.90
2022-08-11T07:04:16.978Z,99.90
2022-08-11T07:07:31.562Z,99.90
2022-08-11T07:10:40.383Z,99.90
2022-08-11T07:13:46.007Z,99.90
2022-08-11T07:36:19.865Z,99.90
2022-08-11T07:39:45.450Z,99.90
2022-08-11T07:50:13.612Z,99.90
2022-08-11T07:58:14.757Z,99.90
2022-08-11T08:00:36.111Z,99.90
2022-08-11T08:03:35.423Z,99.90
2022-08-11T08:06:40.611Z,99.90
2022-08-11T08:09:55.839Z,99.90
2022-08-11T08:14:01.166Z,99.90
2022-08-11T08:17:17.036Z,99.90
2022-08-11T08:20:13.077Z,99.90
2022-08-11T08:27:34.467Z,99.90
2022-08-11T08:30:31.477Z,99.90
2022-08-11T08:33:11.312Z,99.90
2022-08-11T08:35:55.832Z,99.90
2022-08-11T08:41:28.931Z,99.90
2022-08-11T08:44:37.197Z,99.90
2022-08-11T08:47:42.878Z,99.90
2022-08-11T08:50:47.089Z,99.90
2022-08-11T08:53:53.597Z,99.90
2022-08-11T08:56:36.204Z,99.60
2022-08-11T09:00:46.133Z,99.90
2022-08-11T09:06:44.702Z,99.50
2022-08-11T09:13:09.186Z,98.80
2022-08-11T09:15:47.228Z,99.10
2022-08-11T09:21:48.601Z,97.00
2022-08-11T09:24:56.462Z,96.60
2022-08-11T09:31:00.319Z,96.30
2022-08-11T09:34:02.910Z,96.60
2022-08-11T09:37:54.272Z,95.60
2022-08-11T09:43:38.373Z,93.90
2022-08-11T09:47:14.510Z,94.40
2022-08-11T09:49:27.919Z,95.00
2022-08-11T09:52:04.977Z,93.80
2022-08-11T09:54:39.336Z,93.00
2022-08-11T09:58:42.919Z,91.90
2022-08-11T10:01:00.372Z,93.50
2022-08-11T10:03:40.505Z,91.10
2022-08-11T10:09:46.966Z,90.30
2022-08-11T10:14:30.108Z,91.20
2022-08-11T10:16:22.696Z,90.00
2022-08-11T10:18:54.461Z,90.30
2022-08-11T10:21:38.492Z,89.70
2022-08-11T10:24:47.617Z,90.40
2022-08-11T10:28:17.044Z,89.20
2022-08-11T10:31:15.210Z,88.60
2022-08-11T10:34:51.180Z,86.40
2022-08-11T10:38:07.889Z,87.60
2022-08-11T10:41:26.458Z,84.80
2022-08-11T10:44:20.661Z,84.40
2022-08-11T10:51:07.690Z,82.50
2022-08-11T10:54:18.324Z,79.70
2022-08-11T10:57:39.039Z,78.70
2022-08-11T11:03:48.103Z,78.00
2022-08-11T11:06:47.892Z,76.40
2022-08-11T11:09:44.261Z,79.10
2022-08-11T11:13:21.985Z,76.50
2022-08-11T11:16:41.909Z,75.00
2022-08-11T11:19:18.013Z,76.30
2022-08-11T11:22:47.321Z,68.60
2022-08-11T11:26:10.635Z,69.90
2022-08-11T11:28:51.882Z,66.50
2022-08-11T11:32:04.968Z,69.20
2022-08-11T11:36:15.658Z,68.10
2022-08-11T11:45:23.850Z,66.80
2022-08-11T11:48:11.492Z,67.90
2022-08-11T11:50:54.642Z,66.40
2022-08-11T11:53:31.252Z,65.40
2022-08-11T11:56:52.268Z,65.70
2022-08-11T11:59:55.964Z,65.40
2022-08-11T12:02:57.049Z,64.20
2022-08-11T12:05:35.420Z,65.40
2022-08-11T12:14:31.477Z,61.70
2022-08-11T12:17:03.001Z,61.60
2022-08-11T12:20:34.336Z,62.60
2022-08-11T12:23:05.535Z,60.50
2022-08-11T12:26:27.245Z,61.00
2022-08-11T12:28:58.341Z,59.40
2022-08-11T12:31:30.666Z,59.30
2022-08-11T12:37:00.351Z,57.10
2022-08-11T12:40:43.517Z,57.90
2022-08-11T12:43:39.558Z,57.40
2022-08-11T12:46:42.639Z,57.40
2022-08-11T12:50:07.137Z,59.60
2022-08-11T12:53:58.039Z,58.80
2022-08-11T12:57:36.823Z,57.90
2022-08-11T13:00:43.806Z,60.20
2022-08-11T13:03:56.552Z,58.60
2022-08-11T13:06:34.496Z,58.10
2022-08-11T13:09:41.150Z,59.50
2022-08-11T13:12:56.398Z,58.80
2022-08-11T13:15:36.789Z,58.00
2022-08-11T13:18:20.627Z,60.10
2022-08-11T13:21:03.796Z,57.60
2022-08-11T13:24:00.929Z,58.40
2022-08-11T13:26:58.216Z,57.80
2022-08-11T13:33:39.109Z,57.90
2022-08-11T13:35:59.389Z,56.00
2022-08-11T13:38:55.499Z,57.60
2022-08-11T13:41:45.634Z,57.70
2022-08-11T13:44:43.800Z,58.30
2022-08-11T13:47:14.967Z,56.90
2022-08-11T13:49:50.020Z,56.00
2022-08-11T13:53:18.512Z,55.90
2022-08-11T13:55:51.810Z,55.80
2022-08-11T13:58:39.553Z,54.30
2022-08-11T14:02:19.971Z,54.50
2022-08-11T14:04:36.886Z,56.10
2022-08-11T14:07:57.725Z,54.50
2022-08-11T14:15:08.956Z,52.50
2022-08-11T14:17:48.809Z,53.00
2022-08-11T14:21:41.198Z,52.20
2022-08-11T14:24:24.772Z,53.70
2022-08-11T14:27:39.137Z,52.90
2022-08-11T14:30:48.479Z,51.90
2022-08-11T14:34:00.409Z,52.30
2022-08-11T14:37:09.506Z,51.90
2022-08-11T14:40:49.962Z,51.70
2022-08-11T14:44:12.695Z,50.40
2022-08-11T14:47:24.387Z,51.60
2022-08-11T14:53:21.994Z,51.60
2022-08-11T14:56:43.599Z,50.90
2022-08-11T15:03:06.678Z,52.40
2022-08-11T15:05:40.228Z,51.00
2022-08-11T15:12:03.362Z,52.30
2022-08-11T15:15:04.100Z,49.40
2022-08-11T15:18:04.481Z,48.70
2022-08-11T15:21:02.629Z,48.70
2022-08-11T15:23:50.552Z,49.30
2022-08-11T15:26:20.161Z,48.70
2022-08-11T15:29:27.147Z,49.60
2022-08-11T15:32:32.111Z,50.60
2022-08-11T15:35:56.825Z,48.80
2022-08-11T15:38:55.236Z,48.40
2022-08-11T15:42:17.710Z,47.70
2022-08-11T15:45:17.771Z,48.30
2022-08-11T15:47:49.816Z,48.50
2022-08-11T15:50:41.335Z,47.80
2022-08-11T15:53:27.769Z,47.70
2022-08-11T16:00:46.139Z,47.50
2022-08-11T16:03:54.452Z,47.10
2022-08-11T16:06:33.863Z,47.60
2022-08-11T16:09:21.456Z,46.10
2022-08-11T16:12:20.381Z,45.90
2022-08-11T16:18:43.637Z,45.70
2022-08-11T16:21:33.857Z,47.30
2022-08-11T16:27:03.084Z,46.70
2022-08-11T16:27:42.835Z,46.20
2022-08-11T16:30:48.161Z,45.90
2022-08-11T16:37:15.268Z,45.70
2022-08-11T16:40:13.211Z,45.80
2022-08-11T16:43:09.796Z,45.20
2022-08-11T16:46:20.638Z,45.50
2022-08-11T16:51:52.709Z,45.90
2022-08-11T16:54:59.389Z,46.00
2022-08-11T17:05:10.342Z,45.30
2022-08-11T17:08:01.130Z,45.70
2022-08-11T17:11:11.508Z,45.30
2022-08-11T17:14:08.728Z,46.90
2022-08-11T17:17:29.963Z,45.00
2022-08-11T17:20:44.150Z,43.50
2022-08-11T17:23:36.752Z,45.20
2022-08-11T17:26:20.450Z,46.20
2022-08-11T17:33:33.871Z,45.10
2022-08-11T17:36:19.128Z,46.60
2022-08-11T17:39:10.375Z,47.50
2022-08-11T17:46:01.223Z,48.20
2022-08-11T17:48:30.835Z,46.10
2022-08-11T17:51:23.102Z,46.30
2022-08-11T17:58:38.927Z,48.40
2022-08-11T18:01:29.973Z,47.10
2022-08-11T18:04:29.746Z,47.00
2022-08-11T18:12:10.119Z,48.60
2022-08-11T18:14:52.708Z,49.40
2022-08-11T18:22:01.821Z,50.50
2022-08-11T18:25:52.516Z,50.50
2022-08-11T18:28:57.706Z,53.50
2022-08-11T18:31:48.946Z,53.80
2022-08-11T18:35:02.545Z,54.40
2022-08-11T18:38:16.823Z,55.20
2022-08-11T18:41:54.367Z,58.50
2022-08-11T18:45:24.472Z,55.80
2022-08-11T18:51:47.221Z,55.90
2022-08-11T18:59:19.303Z,55.70
2022-08-11T19:02:48.974Z,57.00
2022-08-11T19:09:29.331Z,56.40
2022-08-11T19:13:45.133Z,57.00
2022-08-11T19:19:09.316Z,58.50
2022-08-11T19:44:25.314Z,59.90
2022-08-11T19:55:31.163Z,63.60
2022-08-11T20:12:10.524Z,65.70
2022-08-11T20:15:11.394Z,65.90
2022-08-11T20:30:17.942Z,67.10
2022-08-11T20:37:13.243Z,66.60
2022-08-11T20:40:23.913Z,68.90
2022-08-11T20:44:08.224Z,68.70
2022-08-11T20:46:51.417Z,68.80
2022-08-11T20:58:17.874Z,69.00
2022-08-11T21:01:44.219Z,69.40
2022-08-11T21:13:25.618Z,71.60
2022-08-11T21:21:45.627Z,72.20
2022-08-11T21:28:36.929Z,71.30
2022-08-11T21:35:27.311Z,73.10
2022-08-11T21:39:03.526Z,73.50
2022-08-11T21:41:58.345Z,73.80
2022-08-11T21:45:09.574Z,74.10
2022-08-11T21:48:08.364Z,75.90
2022-08-11T21:51:26.155Z,74.30
2022-08-11T21:54:57.115Z,75.30
2022-08-11T22:02:15.191Z,78.90
2022-08-11T22:06:46.778Z,76.00
2022-08-11T22:10:43.003Z,76.10
2022-08-11T22:14:06.160Z,77.10
2022-08-11T22:25:54.396Z,78.70
2022-08-11T22:41:23.069Z,79.90
2022-08-11T22:53:19.601Z,82.20
2022-08-11T22:56:32.081Z,82.40
2022-08-11T23:17:19.677Z,81.80
2022-08-11T23:20:26.408Z,84.40
2022-08-11T23:23:18.192Z,82.90
2022-08-11T23:26:05.250Z,83.80
2022-08-11T23:28:59.299Z,83.90
2022-08-11T23:31:53.927Z,84.80
2022-08-11T23:35:37.304Z,85.10
2022-08-11T23:37:51.474Z,85.20
2022-08-11T23:40:38.021Z,85.60
2022-08-11T23:43:24.432Z,86.00
2022-08-11T23:46:11.308Z,86.90
2022-08-11T23:48:58.140Z,88.00
2022-08-11T23:51:46.247Z,88.20
2022-08-11T23:54:37.446Z,88.10
2022-08-11T23:57:25.722Z,89.40
